Wetterdaten: Woche 22.02.21 - 28.02.21 (KW8)
Datum Zeit Temp. Aussen Temp. o. S. Temp +5cm Feuchte Auss Luftdruck Regen Sonnenschein Regendauer Solar Windben Empfang
22.02.2021 00:00 10,4 C 9,6 C 6,3 C 68 % 1015,6 hPa 0,0 l/m 0,00 h 0,00 h 0 W/m 0,4 km/h (0 Bft) 94,54 %
22.02.2021 01:00 10,0 C 9,3 C 6,1 C 69 % 1015,7 hPa 0,0 l/m 0,00 h 0,00 h 0 W/m 0,4 km/h (0 Bft) 96,69 %
22.02.2021 02:00 9,2 C 8,0 C 5,1 C 73 % 1016,0 hPa 0,0 l/m 0,00 h 0,00 h 0 W/m 0,1 km/h (0 Bft) 97,15 %
22.02.2021 03:00 8,1 C 7,2 C 4,5 C 79 % 1016,2 hPa 0,0 l/m 0,00 h 0,00 h 0 W/m 0,4 km/h (0 Bft) 98,79 %
22.02.2021 04:00 8,3 C 7,7 C 4,9 C 81 % 1016,2 hPa 0,0 l/m 0,00 h 0,00 h 0 W/m 1,9 km/h (1 Bft) 96,39 %
22.02.2021 05:00 8,5 C 7,8 C 5,0 C 81 % 1016,4 hPa 0,0 l/m 0,00 h 0,00 h 0 W/m 1,7 km/h (1 Bft) 95,98 %
22.02.2021 06:00 8,5 C 7,8 C 5,2 C 81 % 1016,8 hPa 0,0 l/m 0,00 h 0,00 h 0 W/m 1,1 km/h (1 Bft) 98,17 %
22.02.2021 07:00 8,5 C 7,8 C 5,3 C 81 % 1017,1 hPa 0,0 l/m 0,00 h 0,00 h 7 W/m 1,0 km/h (0 Bft) 98,92 %
22.02.2021 08:00 8,4 C 8,0 C 5,6 C 81 % 1017,9 hPa 0,0 l/m 0,00 h 0,00 h 29 W/m 0,9 km/h (0 Bft) 96,70 %
22.02.2021 09:00 9,3 C 9,3 C 6,9 C 80 % 1018,3 hPa 0,0 l/m 0,00 h 0,00 h 84 W/m 1,2 km/h (1 Bft) 97,55 %
22.02.2021 10:00 10,3 C 10,4 C 8,1 C 77 % 1018,7 hPa 0,0 l/m 0,00 h 0,00 h 102 W/m 0,9 km/h (0 Bft) 96,70 %
22.02.2021 11:00 11,2 C 11,5 C 9,1 C 75 % 1019,2 hPa 0,0 l/m 0,00 h 0,00 h 142 W/m 0,6 km/h (0 Bft) 97,37 %
22.02.2021 12:00 12,3 C 12,8 C 10,5 C 70 % 1019,3 hPa 0,0 l/m 0,00 h 0,00 h 172 W/m 1,3 km/h (1 Bft) 97,23 %
22.02.2021 13:00 13,6 C 14,9 C 13,0 C 67 % 1019,3 hPa 0,0 l/m 0,73 h 0,00 h 281 W/m 1,8 km/h (1 Bft) 98,48 %
22.02.2021 14:00 14,6 C 15,7 C 13,9 C 65 % 1019,4 hPa 0,0 l/m 0,63 h 0,00 h 248 W/m 1,3 km/h (1 Bft) 98,23 %
22.02.2021 15:00 15,5 C 16,2 C 14,3 C 64 % 1020,1 hPa 0,0 l/m 0,90 h 0,00 h 190 W/m 1,4 km/h (1 Bft) 95,44 %
22.02.2021 16:00 15,0 C 14,5 C 12,2 C 66 % 1020,5 hPa 0,0 l/m 0,00 h 0,00 h 92 W/m 0,5 km/h (0 Bft) 99,57 %
22.02.2021 17:00 14,3 C 13,4 C 10,6 C 68 % 1021,0 hPa 0,0 l/m 0,00 h 0,00 h 25 W/m 0,3 km/h (0 Bft) 98,72 %
22.02.2021 18:00 13,4 C 12,2 C 9,1 C 70 % 1021,9 hPa 0,0 l/m 0,00 h 0,00 h 0 W/m 0,1 km/h (0 Bft) 94,84 %
22.02.2021 19:00 12,5 C 11,4 C 8,3 C 73 % 1022,8 hPa 0,0 l/m 0,00 h 0,00 h 0 W/m 0,1 km/h (0 Bft) 98,72 %
22.02.2021 20:00 11,8 C 11,1 C 7,8 C 74 % 1023,5 hPa 0,0 l/m 0,00 h 0,00 h 0 W/m 0,1 km/h (0 Bft) 97,54 %
22.02.2021 21:00 11,9 C 11,5 C 8,3 C 72 % 1024,4 hPa 0,0 l/m 0,00 h 0,00 h 0 W/m 0,0 km/h (0 Bft) 98,16 %
22.02.2021 22:00 12,2 C 11,7 C 8,4 C 70 % 1025,3 hPa 0,0 l/m 0,00 h 0,00 h 0 W/m 0,1 km/h (0 Bft) 96,10 %
22.02.2021 23:00 12,3 C 11,7 C 8,8 C 70 % 1025,8 hPa 0,0 l/m 0,00 h 0,00 h 0 W/m 0,2 km/h (0 Bft) 96,44 %
23.02.2021 00:00 12,3 C 11,6 C 8,6 C 70 % 1026,4 hPa 0,0 l/m 0,00 h 0,00 h 0 W/m 0,3 km/h (0 Bft) 99,31 %
23.02.2021 01:00 11,7 C 10,9 C 8,2 C 72 % 1026,9 hPa 0,0 l/m 0,00 h 0,00 h 0 W/m 0,3 km/h (0 Bft) 98,40 %
23.02.2021 02:00 11,3 C 10,6 C 7,8 C 72 % 1026,8 hPa 0,0 l/m 0,00 h 0,00 h 0 W/m 0,4 km/h (0 Bft) 95,35 %
23.02.2021 03:00 11,4 C 10,6 C 7,9 C 74 % 1026,7 hPa 0,0 l/m 0,00 h 0,00 h 0 W/m 0,2 km/h (0 Bft) 97,88 %
23.02.2021 04:00 11,1 C 10,3 C 7,6 C 77 % 1026,8 hPa 0,0 l/m 0,00 h 0,00 h 0 W/m 1,0 km/h (0 Bft) 98,04 %
23.02.2021 05:00 10,7 C 10,0 C 7,3 C 80 % 1027,2 hPa 0,0 l/m 0,00 h 0,00 h 0 W/m 0,3 km/h (0 Bft) 95,10 %
23.02.2021 06:00 10,5 C 9,6 C 6,9 C 81 % 1028,1 hPa 0,0 l/m 0,00 h 0,00 h 0 W/m 0,0 km/h (0 Bft) 97,62 %
23.02.2021 07:00 10,1 C 9,2 C 6,8 C 83 % 1029,0 hPa 0,0 l/m 0,00 h 0,00 h 7 W/m 0,0 km/h (0 Bft) 97,68 %
23.02.2021 08:00 10,3 C 10,3 C 7,8 C 85 % 1029,7 hPa 0,0 l/m 0,00 h 0,00 h 26 W/m 0,0 km/h (0 Bft) 98,03 %
23.02.2021 09:00 11,8 C 12,1 C 9,7 C 84 % 1030,3 hPa 0,0 l/m 0,00 h 0,00 h 64 W/m 0,5 km/h (0 Bft) 97,08 %
23.02.2021 10:00 13,3 C 13,5 C 11,2 C 81 % 1030,6 hPa 0,0 l/m 0,00 h 0,00 h 93 W/m 0,5 km/h (0 Bft) 95,93 %
23.02.2021 11:00 14,4 C 14,7 C 12,5 C 79 % 1030,9 hPa 0,0 l/m 0,17 h 0,00 h 145 W/m 0,4 km/h (0 Bft) 99,06 %
23.02.2021 12:00 16,6 C 17,2 C 15,5 C 72 % 1030,7 hPa 0,0 l/m 0,37 h 0,00 h 232 W/m 3,9 km/h (1 Bft) 98,28 %
23.02.2021 13:00 17,6 C 17,7 C 16,0 C 68 % 1030,5 hPa 0,0 l/m 0,53 h 0,00 h 235 W/m 10,9 km/h (2 Bft) 94,57 %
23.02.2021 14:00 18,0 C 18,3 C 16,8 C 67 % 1030,2 hPa 0,0 l/m 0,47 h 0,00 h 223 W/m 8,8 km/h (2 Bft) 99,71 %
23.02.2021 15:00 19,0 C 20,9 C 21,0 C 65 % 1029,7 hPa 0,0 l/m 0,93 h 0,00 h 326 W/m 14,5 km/h (3 Bft) 97,93 %
23.02.2021 16:00 19,4 C 20,0 C 19,2 C 64 % 1029,5 hPa 0,0 l/m 1,00 h 0,00 h 192 W/m 10,9 km/h (2 Bft) 95,92 %
23.02.2021 17:00 18,4 C 17,4 C 14,5 C 65 % 1030,0 hPa 0,0 l/m 0,20 h 0,00 h 37 W/m 8,4 km/h (2 Bft) 99,22 %
23.02.2021 18:00 17,1 C 15,8 C 12,9 C 69 % 1031,0 hPa 0,0 l/m 0,00 h 0,00 h 5 W/m 0,1 km/h (0 Bft) 97,61 %
23.02.2021 19:00 16,0 C 14,7 C 11,4 C 72 % 1031,8 hPa 0,0 l/m 0,00 h 0,00 h 0 W/m 0,2 km/h (0 Bft) 96,06 %
23.02.2021 20:00 14,9 C 13,6 C 10,5 C 76 % 1031,6 hPa 0,0 l/m 0,00 h 0,00 h 0 W/m 0,5 km/h (0 Bft) 98,72 %
23.02.2021 21:00 13,9 C 12,8 C 10,0 C 79 % 1030,6 hPa 0,0 l/m 0,00 h 0,00 h 0 W/m 0,3 km/h (0 Bft) 97,29 %
23.02.2021 22:00 13,7 C 12,9 C 10,1 C 79 % 1030,2 hPa 0,0 l/m 0,00 h 0,00 h 0 W/m 1,3 km/h (1 Bft) 98,50 %
23.02.2021 23:00 13,3 C 12,2 C 9,3 C 80 % 1030,5 hPa 0,0 l/m 0,00 h 0,00 h 0 W/m 0,1 km/h (0 Bft) 96,99 %
24.02.2021 00:00 12,4 C 11,2 C 8,2 C 82 % 1030,8 hPa 0,0 l/m 0,00 h 0,00 h 0 W/m 0,0 km/h (0 Bft) 95,60 %
24.02.2021 01:00 11,5 C 10,4 C 7,8 C 85 % 1031,2 hPa 0,0 l/m 0,00 h 0,00 h 0 W/m 0,2 km/h (0 Bft) 99,64 %
24.02.2021 02:00 10,9 C 10,0 C 7,8 C 86 % 1031,3 hPa 0,0 l/m 0,00 h 0,00 h 0 W/m 0,2 km/h (0 Bft) 98,43 %
24.02.2021 03:00 10,7 C 9,8 C 7,6 C 88 % 1030,9 hPa 0,0 l/m 0,00 h 0,00 h 0 W/m 0,2 km/h (0 Bft) 95,71 %
24.02.2021 04:00 10,2 C 9,3 C 7,3 C 89 % 1030,5 hPa 0,0 l/m 0,00 h 0,00 h 0 W/m 0,2 km/h (0 Bft) 98,29 %
24.02.2021 05:00 9,8 C 8,9 C 6,9 C 90 % 1030,4 hPa 0,0 l/m 0,00 h 0,00 h 0 W/m 0,1 km/h (0 Bft) 95,06 %
24.02.2021 06:00 9,4 C 8,8 C 6,7 C 92 % 1030,3 hPa 0,0 l/m 0,00 h 0,00 h 0 W/m 0,2 km/h (0 Bft) 98,71 %
24.02.2021 07:00 9,4 C 8,9 C 7,2 C 92 % 1030,5 hPa 0,0 l/m 0,00 h 0,00 h 7 W/m 0,5 km/h (0 Bft) 98,73 %
24.02.2021 08:00 10,0 C 9,9 C 8,1 C 92 % 1030,7 hPa 0,0 l/m 0,00 h 0,00 h 21 W/m 1,1 km/h (0 Bft) 96,13 %
24.02.2021 09:00 11,2 C 11,8 C 9,8 C 90 % 1031,0 hPa 0,0 l/m 0,00 h 0,00 h 35 W/m 0,4 km/h (0 Bft) 98,43 %
24.02.2021 10:00 13,8 C 14,6 C 12,3 C 84 % 1030,9 hPa 0,0 l/m 0,00 h 0,00 h 48 W/m 3,5 km/h (1 Bft) 97,72 %
24.02.2021 11:00 16,5 C 17,7 C 14,4 C 72 % 1030,8 hPa 0,0 l/m 0,60 h 0,00 h 302 W/m 9,5 km/h (2 Bft) 97,23 %
24.02.2021 12:00 18,7 C 21,9 C 22,7 C 66 % 1030,3 hPa 0,0 l/m 1,00 h 0,00 h 495 W/m 6,5 km/h (2 Bft) 98,52 %
24.02.2021 13:00 19,9 C 22,6 C 23,9 C 60 % 1029,5 hPa 0,0 l/m 1,00 h 0,00 h 500 W/m 7,7 km/h (2 Bft) 97,72 %
24.02.2021 14:00 20,8 C 23,2 C 24,6 C 55 % 1028,9 hPa 0,0 l/m 1,00 h 0,00 h 451 W/m 11,4 km/h (2 Bft) 96,23 %
24.02.2021 15:00 21,1 C 22,8 C 24,1 C 55 % 1028,3 hPa 0,0 l/m 1,00 h 0,00 h 340 W/m 5,1 km/h (1 Bft) 98,36 %
24.02.2021 16:00 21,1 C 22,1 C 21,1 C 58 % 1027,7 hPa 0,0 l/m 1,00 h 0,00 h 190 W/m 1,7 km/h (1 Bft) 96,80 %
24.02.2021 17:00 20,1 C 18,6 C 15,7 C 61 % 1027,4 hPa 0,0 l/m 0,20 h 0,00 h 39 W/m 0,1 km/h (0 Bft) 92,52 %
24.02.2021 18:00 17,8 C 15,9 C 13,0 C 68 % 1027,4 hPa 0,0 l/m 0,00 h 0,00 h 4 W/m 0,0 km/h (0 Bft) 96,83 %
24.02.2021 19:00 15,9 C 14,4 C 11,6 C 73 % 1027,4 hPa 0,0 l/m 0,00 h 0,00 h 0 W/m 1,3 km/h (1 Bft) 98,58 %
24.02.2021 20:00 14,8 C 13,5 C 10,6 C 76 % 1027,0 hPa 0,0 l/m 0,00 h 0,00 h 0 W/m 0,4 km/h (0 Bft) 98,15 %
24.02.2021 21:00 13,9 C 12,4 C 9,2 C 79 % 1027,1 hPa 0,0 l/m 0,00 h 0,00 h 0 W/m 0,0 km/h (0 Bft) 97,71 %
24.02.2021 22:00 12,7 C 11,4 C 8,6 C 81 % 1027,1 hPa 0,0 l/m 0,00 h 0,00 h 0 W/m 0,0 km/h (0 Bft) 95,05 %
24.02.2021 23:00 11,8 C 10,5 C 7,9 C 84 % 1027,0 hPa 0,0 l/m 0,00 h 0,00 h 0 W/m 0,2 km/h (0 Bft) 99,52 %
25.02.2021 00:00 11,1 C 10,1 C 7,6 C 86 % 1026,9 hPa 0,0 l/m 0,00 h 0,00 h 0 W/m 0,1 km/h (0 Bft) 97,57 %
25.02.2021 01:00 10,6 C 9,5 C 7,2 C 86 % 1026,7 hPa 0,0 l/m 0,00 h 0,00 h 0 W/m 0,1 km/h (0 Bft) 97,77 %
25.02.2021 02:00 10,4 C 9,7 C 7,5 C 87 % 1026,5 hPa 0,0 l/m 0,00 h 0,00 h 0 W/m 0,1 km/h (0 Bft) 98,22 %
25.02.2021 03:00 10,3 C 9,6 C 7,5 C 87 % 1026,0 hPa 0,0 l/m 0,00 h 0,00 h 0 W/m 0,5 km/h (0 Bft) 95,85 %
25.02.2021 04:00 9,9 C 9,1 C 7,1 C 88 % 1025,9 hPa 0,0 l/m 0,00 h 0,00 h 0 W/m 0,7 km/h (0 Bft) 98,64 %
25.02.2021 05:00 9,4 C 8,5 C 6,7 C 89 % 1026,0 hPa 0,0 l/m 0,00 h 0,00 h 0 W/m 0,5 km/h (0 Bft) 98,22 %
25.02.2021 06:00 8,9 C 8,2 C 6,2 C 89 % 1026,2 hPa 0,0 l/m 0,00 h 0,00 h 0 W/m 0,2 km/h (0 Bft) 98,16 %
25.02.2021 07:00 8,6 C 7,9 C 6,1 C 89 % 1026,2 hPa 0,0 l/m 0,00 h 0,00 h 10 W/m 0,3 km/h (0 Bft) 94,63 %
25.02.2021 08:00 8,9 C 8,9 C 7,1 C 89 % 1026,5 hPa 0,0 l/m 0,00 h 0,00 h 28 W/m 0,2 km/h (0 Bft) 97,36 %
25.02.2021 09:00 10,4 C 10,9 C 8,8 C 86 % 1026,8 hPa 0,0 l/m 0,00 h 0,00 h 50 W/m 0,5 km/h (0 Bft) 98,08 %
25.02.2021 10:00 12,5 C 13,6 C 11,1 C 83 % 1027,0 hPa 0,0 l/m 0,00 h 0,00 h 76 W/m 0,6 km/h (0 Bft) 98,29 %
25.02.2021 11:00 15,4 C 17,5 C 14,2 C 75 % 1027,2 hPa 0,0 l/m 0,70 h 0,00 h 330 W/m 0,6 km/h (0 Bft) 96,30 %
25.02.2021 12:00 17,7 C 18,6 C 18,5 C 65 % 1027,1 hPa 0,0 l/m 0,57 h 0,00 h 312 W/m 2,1 km/h (1 Bft) 98,81 %
25.02.2021 13:00 17,6 C 17,6 C 15,7 C 64 % 1026,6 hPa 0,0 l/m 0,03 h 0,00 h 196 W/m 0,0 km/h (0 Bft) 98,51 %
25.02.2021 14:00 18,7 C 20,6 C 20,9 C 61 % 1026,3 hPa 0,0 l/m 0,83 h 0,00 h 383 W/m 0,0 km/h (0 Bft) 94,09 %
25.02.2021 15:00 19,5 C 20,7 C 20,1 C 60 % 1026,0 hPa 0,0 l/m 0,87 h 0,00 h 255 W/m 0,0 km/h (0 Bft) 99,44 %
25.02.2021 16:00 19,0 C 18,1 C 15,6 C 63 % 1026,0 hPa 0,0 l/m 0,07 h 0,00 h 84 W/m 0,0 km/h (0 Bft) 97,81 %
25.02.2021 17:00 17,8 C 16,4 C 13,3 C 66 % 1026,0 hPa 0,0 l/m 0,00 h 0,00 h 20 W/m 0,0 km/h (0 Bft) 95,87 %
25.02.2021 18:00 16,6 C 14,9 C 11,5 C 69 % 1026,3 hPa 0,0 l/m 0,00 h 0,00 h 0 W/m 0,0 km/h (0 Bft) 99,48 %
25.02.2021 19:00 15,5 C 14,0 C 10,8 C 73 % 1026,8 hPa 0,0 l/m 0,00 h 0,00 h 0 W/m 0,0 km/h (0 Bft) 98,22 %
25.02.2021 20:00 14,5 C 13,3 C 10,4 C 77 % 1027,3 hPa 0,0 l/m 0,00 h 0,00 h 0 W/m 2,8 km/h (1 Bft) 96,30 %
25.02.2021 21:00 13,0 C 11,8 C 9,7 C 85 % 1028,2 hPa 0,0 l/m 0,00 h 0,00 h 0 W/m 3,7 km/h (1 Bft) 97,93 %
25.02.2021 22:00 11,9 C 10,7 C 9,0 C 90 % 1028,9 hPa 0,0 l/m 0,00 h 0,00 h 0 W/m 0,3 km/h (0 Bft) 95,80 %
25.02.2021 23:00 11,2 C 10,3 C 8,7 C 91 % 1029,3 hPa 0,0 l/m 0,00 h 0,00 h 0 W/m 0,4 km/h (0 Bft) 97,87 %
26.02.2021 00:00 10,6 C 9,4 C 8,0 C 93 % 1029,9 hPa 0,2 l/m 0,00 h 0,37 h 0 W/m 0,6 km/h (0 Bft) 99,41 %
26.02.2021 01:00 9,7 C 8,2 C 7,4 C 95 % 1030,5 hPa 2,8 l/m 0,00 h 1,00 h 0 W/m 2,5 km/h (1 Bft) 94,88 %
26.02.2021 02:00 8,2 C 6,9 C 6,3 C 95 % 1030,8 hPa 0,4 l/m 0,00 h 0,70 h 0 W/m 1,8 km/h (1 Bft) 96,51 %
26.02.2021 03:00 7,6 C 6,7 C 6,1 C 95 % 1030,6 hPa 0,0 l/m 0,00 h 0,00 h 0 W/m 0,9 km/h (0 Bft) 99,43 %
26.02.2021 04:00 7,3 C 6,2 C 5,7 C 95 % 1031,3 hPa 0,2 l/m 0,00 h 0,67 h 0 W/m 1,8 km/h (1 Bft) 96,94 %
26.02.2021 05:00 6,7 C 5,7 C 5,1 C 94 % 1032,0 hPa 0,2 l/m 0,00 h 0,77 h 0 W/m 0,2 km/h (0 Bft) 99,07 %
26.02.2021 06:00 6,5 C 5,6 C 5,0 C 94 % 1032,2 hPa 0,0 l/m 0,00 h 0,00 h 0 W/m 0,0 km/h (0 Bft) 98,27 %
26.02.2021 07:00 6,4 C 5,6 C 5,0 C 94 % 1032,6 hPa 0,0 l/m 0,00 h 0,00 h 8 W/m 0,0 km/h (0 Bft) 96,69 %
26.02.2021 08:00 6,4 C 6,2 C 5,2 C 95 % 1033,4 hPa 0,0 l/m 0,00 h 0,00 h 34 W/m 0,0 km/h (0 Bft) 95,01 %
26.02.2021 09:00 6,9 C 7,4 C 6,3 C 95 % 1033,8 hPa 0,0 l/m 0,00 h 0,00 h 96 W/m 0,0 km/h (0 Bft) 96,40 %
26.02.2021 10:00 7,7 C 7,9 C 6,7 C 92 % 1034,0 hPa 0,0 l/m 0,00 h 0,00 h 64 W/m 0,0 km/h (0 Bft) 96,91 %
26.02.2021 11:00 8,7 C 11,5 C 8,2 C 88 % 1034,4 hPa 0,0 l/m 0,70 h 0,00 h 338 W/m 0,2 km/h (0 Bft) 97,29 %
26.02.2021 12:00 10,9 C 14,5 C 15,6 C 74 % 1034,4 hPa 0,2 l/m 0,73 h 0,00 h 392 W/m 3,2 km/h (1 Bft) 96,27 %
26.02.2021 13:00 11,5 C 14,5 C 15,1 C 64 % 1034,2 hPa 0,0 l/m 0,67 h 0,00 h 429 W/m 3,5 km/h (1 Bft) 97,39 %
26.02.2021 14:00 11,4 C 14,4 C 15,5 C 64 % 1034,1 hPa 0,0 l/m 0,57 h 0,00 h 320 W/m 3,6 km/h (1 Bft) 99,65 %
26.02.2021 15:00 11,8 C 12,8 C 12,9 C 63 % 1034,1 hPa 0,0 l/m 0,43 h 0,00 h 188 W/m 2,8 km/h (1 Bft) 96,93 %
26.02.2021 16:00 11,1 C 11,9 C 11,7 C 64 % 1034,4 hPa 0,0 l/m 0,53 h 0,00 h 151 W/m 3,4 km/h (1 Bft) 97,42 %
26.02.2021 17:00 9,9 C 9,1 C 6,8 C 66 % 1034,7 hPa 0,0 l/m 0,33 h 0,00 h 42 W/m 2,7 km/h (1 Bft) 96,59 %
26.02.2021 18:00 8,8 C 7,6 C 5,1 C 70 % 1035,3 hPa 0,0 l/m 0,00 h 0,00 h 6 W/m 1,0 km/h (0 Bft) 98,04 %
26.02.2021 19:00 7,8 C 6,5 C 4,0 C 75 % 1036,1 hPa 0,0 l/m 0,00 h 0,00 h 0 W/m 0,7 km/h (0 Bft) 96,64 %
26.02.2021 20:00 6,7 C 5,5 C 3,2 C 79 % 1036,5 hPa 0,0 l/m 0,00 h 0,00 h 0 W/m 0,3 km/h (0 Bft) 96,03 %
26.02.2021 21:00 5,7 C 4,6 C 2,5 C 83 % 1036,8 hPa 0,0 l/m 0,00 h 0,00 h 0 W/m 0,3 km/h (0 Bft) 98,84 %
26.02.2021 22:00 5,0 C 3,7 C 1,7 C 85 % 1037,5 hPa 0,0 l/m 0,00 h 0,00 h 0 W/m 0,1 km/h (0 Bft) 98,36 %
26.02.2021 23:00 4,3 C 2,8 C 1,0 C 86 % 1037,9 hPa 0,0 l/m 0,00 h 0,00 h 0 W/m 0,1 km/h (0 Bft) 98,65 %
27.02.2021 00:00 3,6 C 2,4 C 0,5 C 88 % 1038,2 hPa 0,0 l/m 0,00 h 0,00 h 0 W/m 0,0 km/h (0 Bft) 94,74 %
27.02.2021 01:00 3,2 C 2,4 C 0,9 C 90 % 1038,5 hPa 0,0 l/m 0,00 h 0,00 h 0 W/m 0,0 km/h (0 Bft) 95,71 %
27.02.2021 02:00 3,8 C 3,3 C 2,3 C 94 % 1038,7 hPa 0,0 l/m 0,00 h 0,00 h 0 W/m 0,2 km/h (0 Bft) 97,65 %
27.02.2021 03:00 3,9 C 3,4 C 2,7 C 94 % 1038,8 hPa 0,0 l/m 0,00 h 0,00 h 0 W/m 0,1 km/h (0 Bft) 97,79 %
27.02.2021 04:00 4,0 C 3,9 C 2,8 C 94 % 1039,0 hPa 0,0 l/m 0,00 h 0,00 h 0 W/m 0,0 km/h (0 Bft) 98,24 %
27.02.2021 05:00 4,1 C 3,9 C 2,8 C 94 % 1039,3 hPa 0,0 l/m 0,00 h 0,00 h 0 W/m 0,1 km/h (0 Bft) 98,86 %
27.02.2021 06:00 4,2 C 3,9 C 2,8 C 92 % 1039,6 hPa 0,0 l/m 0,00 h 0,00 h 0 W/m 0,0 km/h (0 Bft) 95,60 %
27.02.2021 07:00 4,3 C 3,9 C 2,8 C 92 % 1040,1 hPa 0,0 l/m 0,00 h 0,00 h 9 W/m 0,0 km/h (0 Bft) 96,72 %
27.02.2021 08:00 4,4 C 4,3 C 3,1 C 91 % 1040,6 hPa 0,0 l/m 0,00 h 0,00 h 31 W/m 0,0 km/h (0 Bft) 97,43 %
27.02.2021 09:00 4,9 C 5,1 C 4,0 C 90 % 1041,0 hPa 0,0 l/m 0,00 h 0,00 h 80 W/m 0,0 km/h (0 Bft) 96,88 %
27.02.2021 10:00 5,7 C 6,3 C 5,2 C 88 % 1041,2 hPa 0,0 l/m 0,00 h 0,00 h 139 W/m 0,0 km/h (0 Bft) 98,66 %
27.02.2021 11:00 6,6 C 9,4 C 7,6 C 85 % 1041,3 hPa 0,0 l/m 0,37 h 0,00 h 265 W/m 0,1 km/h (0 Bft) 97,01 %
27.02.2021 12:00 9,1 C 14,5 C 14,7 C 78 % 1041,2 hPa 0,0 l/m 0,80 h 0,00 h 450 W/m 0,3 km/h (0 Bft) 99,48 %
27.02.2021 13:00 10,2 C 14,3 C 14,8 C 73 % 1040,9 hPa 0,0 l/m 0,83 h 0,00 h 429 W/m 0,3 km/h (0 Bft) 96,67 %
27.02.2021 14:00 11,5 C 15,7 C 16,7 C 70 % 1040,4 hPa 0,0 l/m 0,97 h 0,00 h 411 W/m 0,4 km/h (0 Bft) 99,44 %
27.02.2021 15:00 12,0 C 14,7 C 16,4 C 69 % 1040,0 hPa 0,0 l/m 0,97 h 0,00 h 333 W/m 0,9 km/h (0 Bft) 95,59 %
27.02.2021 16:00 11,4 C 12,3 C 13,1 C 70 % 1039,8 hPa 0,0 l/m 0,83 h 0,00 h 199 W/m 1,4 km/h (1 Bft) 97,20 %
27.02.2021 17:00 9,3 C 8,2 C 6,2 C 76 % 1039,8 hPa 0,0 l/m 0,67 h 0,00 h 55 W/m 0,6 km/h (0 Bft) 99,28 %
27.02.2021 18:00 7,8 C 6,5 C 4,2 C 80 % 1040,0 hPa 0,0 l/m 0,00 h 0,00 h 7 W/m 0,2 km/h (0 Bft) 96,49 %
27.02.2021 19:00 7,1 C 6,3 C 3,9 C 84 % 1040,2 hPa 0,0 l/m 0,00 h 0,00 h 0 W/m 0,1 km/h (0 Bft) 96,07 %
27.02.2021 20:00 6,7 C 6,1 C 3,7 C 85 % 1040,2 hPa 0,0 l/m 0,00 h 0,00 h 0 W/m 0,0 km/h (0 Bft) 96,90 %
27.02.2021 21:00 6,5 C 5,9 C 3,6 C 86 % 1040,1 hPa 0,0 l/m 0,00 h 0,00 h 0 W/m 0,0 km/h (0 Bft) 96,14 %
27.02.2021 22:00 6,5 C 6,0 C 3,9 C 87 % 1040,1 hPa 0,0 l/m 0,00 h 0,00 h 0 W/m 0,0 km/h (0 Bft) 99,06 %
27.02.2021 23:00 6,6 C 6,1 C 3,9 C 87 % 1039,9 hPa 0,0 l/m 0,00 h 0,00 h 0 W/m 0,0 km/h (0 Bft) 98,48 %
28.02.2021 00:00 6,6 C 6,1 C 3,9 C 88 % 1039,9 hPa 0,0 l/m 0,00 h 0,00 h 0 W/m 0,0 km/h (0 Bft) 95,07 %
28.02.2021 01:00 6,5 C 5,9 C 3,9 C 88 % 1039,8 hPa 0,0 l/m 0,00 h 0,00 h 0 W/m 0,0 km/h (0 Bft) 98,37 %
28.02.2021 02:00 6,4 C 5,6 C 3,9 C 89 % 1039,5 hPa 0,0 l/m 0,00 h 0,00 h 0 W/m 0,0 km/h (0 Bft) 98,27 %
28.02.2021 03:00 6,4 C 5,6 C 3,9 C 89 % 1039,0 hPa 0,0 l/m 0,00 h 0,00 h 0 W/m 0,0 km/h (0 Bft) 97,79 %
28.02.2021 04:00 6,3 C 5,1 C 3,4 C 89 % 1038,5 hPa 0,0 l/m 0,00 h 0,00 h 0 W/m 0,0 km/h (0 Bft) 97,38 %
28.02.2021 05:00 5,3 C 3,3 C 1,7 C 89 % 1038,3 hPa 0,0 l/m 0,00 h 0,00 h 0 W/m 0,0 km/h (0 Bft) 97,08 %
28.02.2021 06:00 4,1 C 2,5 C 0,9 C 89 % 1038,2 hPa 0,0 l/m 0,00 h 0,00 h 0 W/m 0,0 km/h (0 Bft) 93,78 %
28.02.2021 07:00 3,2 C 2,0 C 0,6 C 90 % 1038,2 hPa 0,0 l/m 0,00 h 0,00 h 9 W/m 0,0 km/h (0 Bft) 95,70 %
28.02.2021 08:00 3,0 C 3,0 C 1,4 C 92 % 1038,4 hPa 0,0 l/m 0,00 h 0,00 h 21 W/m 0,0 km/h (0 Bft) 97,13 %
28.02.2021 09:00 4,5 C 5,2 C 3,4 C 95 % 1038,3 hPa 0,0 l/m 0,00 h 0,00 h 32 W/m 0,0 km/h (0 Bft) 98,22 %
28.02.2021 10:00 6,2 C 7,4 C 5,6 C 95 % 1038,2 hPa 0,0 l/m 0,00 h 0,00 h 45 W/m 0,0 km/h (0 Bft) 97,51 %
28.02.2021 11:00 8,4 C 12,3 C 9,3 C 87 % 1038,0 hPa 0,0 l/m 0,70 h 0,00 h 382 W/m 0,9 km/h (0 Bft) 94,09 %
28.02.2021 12:00 11,8 C 18,5 C 20,3 C 74 % 1037,4 hPa 0,0 l/m 1,00 h 0,00 h 547 W/m 0,9 km/h (0 Bft) 96,28 %
28.02.2021 13:00 13,6 C 19,3 C 21,5 C 68 % 1036,5 hPa 0,0 l/m 1,00 h 0,00 h 556 W/m 1,9 km/h (1 Bft) 95,89 %
28.02.2021 14:00 14,8 C 19,7 C 22,4 C 64 % 1035,8 hPa 0,0 l/m 1,00 h 0,00 h 506 W/m 2,1 km/h (1 Bft) 98,72 %
28.02.2021 15:00 15,3 C 19,0 C 21,6 C 62 % 1035,2 hPa 0,0 l/m 1,00 h 0,00 h 403 W/m 2,5 km/h (1 Bft) 97,79 %
28.02.2021 16:00 15,0 C 16,4 C 18,0 C 62 % 1034,7 hPa 0,0 l/m 1,00 h 0,00 h 248 W/m 1,2 km/h (1 Bft) 98,08 %
28.02.2021 17:00 12,6 C 11,1 C 8,4 C 69 % 1034,5 hPa 0,0 l/m 0,40 h 0,00 h 56 W/m 0,0 km/h (0 Bft) 97,86 %
28.02.2021 18:00 9,9 C 8,2 C 5,7 C 76 % 1034,7 hPa 0,0 l/m 0,00 h 0,00 h 7 W/m 0,0 km/h (0 Bft) 97,26 %
28.02.2021 19:00 8,3 C 6,9 C 4,4 C 78 % 1034,7 hPa 0,0 l/m 0,00 h 0,00 h 0 W/m 0,0 km/h (0 Bft) 95,35 %
28.02.2021 20:00 7,4 C 6,3 C 3,6 C 83 % 1034,6 hPa 0,0 l/m 0,00 h 0,00 h 0 W/m 0,0 km/h (0 Bft) 98,30 %
28.02.2021 21:00 6,6 C 5,3 C 2,9 C 87 % 1034,6 hPa 0,0 l/m 0,00 h 0,00 h 0 W/m 0,0 km/h (0 Bft) 98,49 %
28.02.2021 22:00 5,8 C 4,6 C 2,3 C 89 % 1034,5 hPa 0,0 l/m 0,00 h 0,00 h 0 W/m 0,0 km/h (0 Bft) 97,22 %
28.02.2021 23:00 5,2 C 4,2 C 1,7 C 91 % 1034,4 hPa 0,0 l/m 0,00 h 0,00 h 0 W/m 0,0 km/h (0 Bft) 96,53 %
Min-Datum _ 28.02.21 27.02.21 27.02.21 24.02.21 22.02.21 - - - - 22.02.21 22.02.21
_ Min-Zeit 08:00 01:00 00:50 14:32 00:00 - - - - 00:00 00:02
Minimum _ 2,9 C 1,7 C 0,0 C 54 % 1015,5 hPa - - - - 0,0 km/h (0 Bft) 8,33 %
Max-Datum _ 24.02.21 24.02.21 24.02.21 26.02.21 27.02.21 26.02.21 26.02.21 26.02.21 26.02.21 23.02.21 22.02.21
_ Max-Zeit 15:40 14:20 13:44 01:50 11:08 01:04 13:35 00:34 13:42 17:26 00:00
Maximum _ 21,3 C 23,9 C 25,0 C 96 % 1041,4 hPa 2,8 l/m 0,08 h 0,03 h 689 W/m 41,8 km/h
S-SO (6 Bft)
100,00 %
Durchschnitt _ 10,8 C 10,8 C 9,0 C 79 % 1030,8 hPa #4,0 l/m #30:18 h #3:30 h 176 W/m 1,1 km/h (1 Bft) 97,33 %
© 2021 W. Hausmann